Time;durP1;ratioP1;P1;durP2;ratioP2;P2;SDS_P1;SDS_P2;PMS_P1;PMS_P2;Temp;Humidity;BMP_temperature;BMP_pressure;BME280_temperature;BME280_humidity;BME280_pressure;Samples;Min_cycle;Max_cycle;Signal;HPM_P1;HPM_P2
2021/01/01 00:01:33;;;;;;;81.03;66.82;;;;;;;11.31;54.30;99643.00;4901174;28;98328;-58
2021/01/01 00:03:59;;;;;;;82.13;67.07;;;;;;;11.33;54.52;99642.72;4900701;28;98560;-58
2021/01/01 00:06:25;;;;;;;81.75;68.63;;;;;;;11.36;54.44;99645.63;4901100;28;125597;-58
2021/01/01 00:08:51;;;;;;;84.90;72.43;;;;;;;11.36;54.58;99637.56;4901627;28;117098;-58
2021/01/01 00:11:17;;;;;;;89.03;74.90;;;;;;;11.38;54.51;99648.84;4901875;28;99048;-58
2021/01/01 00:13:43;;;;;;;95.57;75.80;;;;;;;11.40;53.67;99649.34;4902442;28;99271;-58
2021/01/01 00:16:13;;;;;;;96.47;77.22;;;;;;;11.38;54.41;99645.34;4902323;28;125699;-58
2021/01/01 00:18:43;;;;;;;98.22;80.78;;;;;;;11.38;53.63;99648.84;4884933;28;97949;-58
2021/01/01 00:21:09;;;;;;;96.68;79.47;;;;;;;11.41;54.05;99647.47;4902597;28;114522;-58
2021/01/01 00:23:37;;;;;;;101.65;83.38;;;;;;;11.42;53.87;99643.66;4897780;28;113443;-58
2021/01/01 00:26:13;;;;;;;101.20;84.80;;;;;;;11.39;53.67;99650.44;4882566;28;97721;-58
2021/01/01 00:28:47;;;;;;;105.80;84.90;;;;;;;11.40;53.75;99654.75;4903008;28;97847;-58
2021/01/01 00:31:20;;;;;;;102.97;83.95;;;;;;;11.39;54.23;99655.81;4862780;28;118329;-59
2021/01/01 00:33:46;;;;;;;103.53;83.65;;;;;;;11.43;53.80;99659.53;4863699;28;99258;-58
2021/01/01 00:36:13;;;;;;;106.25;86.78;;;;;;;11.43;53.74;99656.06;4863389;28;112732;-58
2021/01/01 00:38:46;;;;;;;98.45;81.28;;;;;;;11.44;54.16;99652.28;4864603;28;97862;-58
2021/01/01 00:41:19;;;;;;;97.53;80.50;;;;;;;11.43;53.54;99650.66;4862791;28;98599;-58
2021/01/01 00:43:45;;;;;;;95.28;78.90;;;;;;;11.44;53.94;99661.19;4862691;28;117572;-58
2021/01/01 00:46:11;;;;;;;96.28;79.00;;;;;;;11.45;53.83;99651.97;4862575;28;114428;-58
2021/01/01 00:48:37;;;;;;;95.38;77.78;;;;;;;11.49;53.64;99655.69;4862850;28;118289;-58
2021/01/01 00:51:03;;;;;;;89.63;74.80;;;;;;;11.51;54.05;99647.28;4862349;28;128504;-58
2021/01/01 00:53:29;;;;;;;87.35;75.25;;;;;;;11.56;53.45;99655.34;4899537;28;118466;-58
2021/01/01 00:55:55;;;;;;;88.53;72.75;;;;;;;11.60;54.03;99658.25;4899489;28;127844;-59
2021/01/01 00:58:21;;;;;;;87.47;69.30;;;;;;;11.61;53.74;99651.75;4901395;28;117629;-58
2021/01/01 01:00:47;;;;;;;78.95;67.15;;;;;;;11.63;53.55;99649.53;4883067;28;128157;-58
2021/01/01 01:03:13;;;;;;;77.97;61.70;;;;;;;11.65;53.13;99653.56;4866520;28;127728;-58
2021/01/01 01:05:39;;;;;;;73.25;61.15;;;;;;;11.66;53.66;99657.84;4883273;28;122238;-58
2021/01/01 01:08:06;;;;;;;69.82;57.72;;;;;;;11.69;53.50;99648.38;4883751;28;114999;-58
2021/01/01 01:10:32;;;;;;;67.70;55.65;;;;;;;11.68;53.74;99652.97;4901974;28;115820;-58
2021/01/01 01:12:58;;;;;;;66.00;52.40;;;;;;;11.68;53.38;99658.38;4901569;28;98321;-58
2021/01/01 01:15:24;;;;;;;57.72;48.35;;;;;;;11.72;53.32;99655.91;4866018;28;125954;-58
2021/01/01 01:17:50;;;;;;;57.40;47.80;;;;;;;11.72;53.37;99655.91;4883068;28;118586;-58
2021/01/01 01:20:16;;;;;;;50.80;44.17;;;;;;;11.72;53.71;99661.31;4873484;28;127637;-58
2021/01/01 01:22:42;;;;;;;48.08;40.67;;;;;;;11.72;53.73;99658.59;4866734;28;98309;-58
2021/01/01 01:25:09;;;;;;;46.97;39.63;;;;;;;11.71;53.21;99657.81;4885922;28;98217;-58
2021/01/01 01:27:35;;;;;;;44.55;38.75;;;;;;;11.72;53.81;99655.91;4885305;28;97715;-58
2021/01/01 01:30:03;;;;;;;44.15;37.13;;;;;;;11.70;53.66;99660.78;4885949;28;98919;-58
2021/01/01 01:32:29;;;;;;;41.20;35.47;;;;;;;11.72;53.29;99659.41;4885224;28;98376;-58
2021/01/01 01:34:55;;;;;;;37.72;32.67;;;;;;;11.73;53.55;99652.09;4886259;28;111945;-58
2021/01/01 01:37:22;;;;;;;35.13;30.75;;;;;;;11.73;53.37;99641.28;4904324;28;116400;-58
2021/01/01 01:39:48;;;;;;;36.10;30.27;;;;;;;11.73;53.67;99650.19;4904113;28;124118;-58
2021/01/01 01:42:14;;;;;;;34.72;28.90;;;;;;;11.74;53.56;99651.00;4903529;28;123737;-58
2021/01/01 01:44:40;;;;;;;33.15;28.38;;;;;;;11.74;53.69;99656.38;4903724;28;127162;-58
2021/01/01 01:47:06;;;;;;;33.03;28.30;;;;;;;11.74;53.40;99648.28;4903499;28;117567;-58
2021/01/01 01:49:32;;;;;;;31.55;26.83;;;;;;;11.72;53.83;99653.19;4885902;28;128302;-58
2021/01/01 01:51:58;;;;;;;34.40;26.90;;;;;;;11.75;53.66;99644.50;4886633;28;98302;-58
2021/01/01 01:54:24;;;;;;;31.75;25.83;;;;;;;11.74;53.71;99651.00;4885994;28;126419;-58
2021/01/01 01:56:50;;;;;;;30.00;25.55;;;;;;;11.74;53.92;99643.69;4870773;28;97927;-58
2021/01/01 01:59:18;;;;;;;29.30;24.15;;;;;;;11.72;53.54;99642.41;4903526;28;128450;-58
2021/01/01 02:01:44;;;;;;;27.17;23.23;;;;;;;11.71;53.75;99646.16;4903018;28;98695;-59
2021/01/01 02:04:10;;;;;;;27.10;22.67;;;;;;;11.72;53.74;99642.41;4903702;28;118973;-58
2021/01/01 02:06:37;;;;;;;25.52;21.55;;;;;;;11.67;53.89;99640.59;4904065;28;118148;-58
2021/01/01 02:09:03;;;;;;;25.20;21.95;;;;;;;11.67;53.85;99642.47;4902671;28;99047;-58
2021/01/01 02:11:30;;;;;;;24.00;19.95;;;;;;;11.64;53.61;99643.88;4904364;28;98127;-58
2021/01/01 02:13:56;;;;;;;25.00;20.90;;;;;;;11.63;54.00;99644.16;4885542;28;127335;-58
2021/01/01 02:16:22;;;;;;;23.55;20.63;;;;;;;11.59;53.80;99640.44;4890526;28;118916;-58
2021/01/01 02:18:48;;;;;;;22.92;19.75;;;;;;;11.56;53.77;99647.25;4851885;28;98287;-58
2021/01/01 02:21:16;;;;;;;23.60;19.92;;;;;;;11.55;53.90;99643.75;4884831;28;99164;-58
2021/01/01 02:23:43;;;;;;;22.52;19.52;;;;;;;11.55;53.95;99654.53;4902651;28;98291;-58
2021/01/01 02:26:09;;;;;;;22.65;19.10;;;;;;;11.55;53.95;99653.72;4904896;28;97969;-58
2021/01/01 02:28:35;;;;;;;23.23;19.70;;;;;;;11.55;53.63;99641.03;4902960;28;127951;-58
2021/01/01 02:31:01;;;;;;;24.38;19.60;;;;;;;11.55;53.72;99642.91;4903768;28;99836;-58
2021/01/01 02:33:27;;;;;;;21.90;18.25;;;;;;;11.58;53.36;99638.84;4903468;28;98360;-58
2021/01/01 02:35:53;;;;;;;22.00;18.70;;;;;;;11.55;53.90;99646.44;4904359;28;97900;-58
2021/01/01 02:38:19;;;;;;;23.02;19.40;;;;;;;11.57;53.93;99639.94;4903549;28;105840;-58
2021/01/01 02:40:45;;;;;;;21.02;18.27;;;;;;;11.58;53.80;99638.84;4903076;28;119461;-58
2021/01/01 02:43:12;;;;;;;21.05;18.27;;;;;;;11.57;53.82;99640.72;4903844;28;123144;-58
2021/01/01 02:45:38;;;;;;;21.85;18.00;;;;;;;11.60;53.78;99645.56;4904575;28;100802;-58
2021/01/01 02:48:15;;;;;;;20.55;17.90;;;;;;;11.57;53.79;99637.25;4901788;28;128814;-58
2021/01/01 02:50:42;;;;;;;20.60;16.98;;;;;;;11.59;53.19;99638.53;4901869;28;98252;-58
2021/01/01 02:53:08;;;;;;;22.30;17.95;;;;;;;11.61;53.65;99643.66;4903494;28;98489;-58
2021/01/01 02:55:34;;;;;;;20.45;18.05;;;;;;;11.60;53.18;99634.75;4903074;28;111596;-58
2021/01/01 02:58:01;;;;;;;19.92;17.25;;;;;;;11.61;53.12;99640.94;4903074;28;99024;-58
2021/01/01 03:00:28;;;;;;;20.48;16.92;;;;;;;11.62;53.71;99646.03;4902797;28;120070;-58
2021/01/01 03:02:55;;;;;;;21.13;18.30;;;;;;;11.62;53.51;99643.34;4903902;28;98272;-58
2021/01/01 03:05:21;;;;;;;19.50;17.40;;;;;;;11.64;53.68;99643.06;4885003;28;97878;-58
2021/01/01 03:07:47;;;;;;;19.80;17.13;;;;;;;11.63;53.56;99638.75;4903157;28;125149;-58
2021/01/01 03:10:13;;;;;;;19.23;16.40;;;;;;;11.65;53.47;99644.66;4885289;28;98692;-58
2021/01/01 03:12:39;;;;;;;21.98;17.67;;;;;;;11.64;53.21;99640.38;4902995;28;97993;-58
2021/01/01 03:15:07;;;;;;;19.70;16.85;;;;;;;11.63;53.74;99638.75;4903195;28;117899;-58
2021/01/01 03:17:33;;;;;;;19.33;17.23;;;;;;;11.60;53.90;99642.84;4901182;28;113435;-58
2021/01/01 03:19:59;;;;;;;20.02;16.98;;;;;;;11.60;53.65;99648.25;4883724;28;110205;-58
2021/01/01 03:22:25;;;;;;;19.35;17.08;;;;;;;11.60;53.19;99644.75;4882754;28;126084;-58
2021/01/01 03:24:51;;;;;;;19.38;16.98;;;;;;;11.59;53.91;99638.53;4903062;28;118788;-58
2021/01/01 03:27:17;;;;;;;19.52;17.42;;;;;;;11.61;53.67;99635.56;4902484;28;128721;-58
2021/01/01 03:29:43;;;;;;;19.55;17.23;;;;;;;11.59;53.42;99635.81;4902813;28;128669;-58
2021/01/01 03:32:09;;;;;;;19.80;17.40;;;;;;;11.60;53.66;99632.06;4883669;28;127613;-58
2021/01/01 03:34:36;;;;;;;19.63;17.20;;;;;;;11.61;53.57;99633.66;4902798;28;97965;-58
2021/01/01 03:37:02;;;;;;;18.85;16.85;;;;;;;11.62;53.17;99637.16;4903477;28;98680;-59
2021/01/01 03:39:28;;;;;;;19.63;16.90;;;;;;;11.62;54.04;99642.56;4900026;28;128096;-58
2021/01/01 03:41:54;;;;;;;19.58;17.48;;;;;;;11.62;53.49;99635.25;4901864;28;126666;-58
2021/01/01 03:44:20;;;;;;;19.88;17.30;;;;;;;11.60;53.48;99634.75;4901063;28;108819;-58
2021/01/01 03:46:46;;;;;;;21.45;18.05;;;;;;;11.61;53.50;99632.84;4883695;28;127166;-58
2021/01/01 03:49:12;;;;;;;20.80;17.17;;;;;;;11.60;53.78;99632.06;4902110;28;128121;-58
2021/01/01 03:51:38;;;;;;;21.95;17.70;;;;;;;11.62;53.81;99623.66;4902045;28;127661;-58
2021/01/01 03:54:04;;;;;;;18.92;16.92;;;;;;;11.62;53.97;99619.06;4884772;28;117708;-58
2021/01/01 03:56:30;;;;;;;19.65;17.38;;;;;;;11.61;53.80;99613.97;4899885;28;128019;-58
2021/01/01 03:58:56;;;;;;;19.00;17.00;;;;;;;11.63;53.79;99619.84;4900868;28;128400;-58
2021/01/01 04:01:22;;;;;;;19.27;17.15;;;;;;;11.62;53.99;99615.56;4903814;28;97911;-58
2021/01/01 04:03:48;;;;;;;21.77;17.50;;;;;;;11.62;53.83;99610.16;4900792;28;117330;-58
2021/01/01 04:06:14;;;;;;;20.92;17.25;;;;;;;11.62;53.30;99612.84;4883208;28;128169;-58
2021/01/01 04:08:40;;;;;;;19.38;17.05;;;;;;;11.59;53.74;99610.75;4902111;28;107999;-58
2021/01/01 04:11:07;;;;;;;20.05;17.45;;;;;;;11.60;53.73;99617.75;4901732;28;127669;-58
2021/01/01 04:13:33;;;;;;;19.15;16.98;;;;;;;11.57;53.86;99619.13;4902407;28;117798;-58
2021/01/01 04:16:01;;;;;;;20.00;16.88;;;;;;;11.58;53.83;99614.53;4901915;28;128079;-58
2021/01/01 04:18:27;;;;;;;21.98;17.52;;;;;;;11.60;53.84;99623.97;4901891;28;117316;-58
2021/01/01 04:20:53;;;;;;;21.42;17.75;;;;;;;11.58;54.07;99623.44;4901788;28;127221;-58
2021/01/01 04:23:20;;;;;;;19.80;17.63;;;;;;;11.63;54.10;99630.66;4902578;28;97772;-58
2021/01/01 04:25:48;;;;;;;20.90;17.70;;;;;;;11.58;53.51;99626.13;4901640;28;98616;-58
2021/01/01 04:28:14;;;;;;;19.05;17.02;;;;;;;11.62;53.69;99629.84;4901976;28;99076;-58
2021/01/01 04:30:40;;;;;;;20.65;17.85;;;;;;;11.62;53.82;99623.66;4900368;28;127667;-58
2021/01/01 04:33:07;;;;;;;19.83;17.52;;;;;;;11.64;54.01;99624.19;4900273;28;117746;-58
2021/01/01 04:35:33;;;;;;;21.17;17.42;;;;;;;11.64;53.46;99630.38;4881642;28;108174;-58
2021/01/01 04:37:59;;;;;;;18.88;16.83;;;;;;;11.66;53.87;99630.06;4882055;28;128212;-58
2021/01/01 04:40:25;;;;;;;19.13;17.05;;;;;;;11.65;53.86;99639.28;4881203;28;127697;-58
2021/01/01 04:42:51;;;;;;;20.48;17.38;;;;;;;11.67;53.93;99634.34;4881096;28;110238;-57
2021/01/01 04:45:17;;;;;;;19.13;16.98;;;;;;;11.67;53.68;99637.06;4882288;28;127967;-58
2021/01/01 04:47:45;;;;;;;19.48;17.35;;;;;;;11.67;53.73;99626.25;4882299;28;99076;-58
2021/01/01 04:50:11;;;;;;;19.83;17.13;;;;;;;11.67;53.85;99639.75;4882613;28;102373;-58
2021/01/01 04:52:37;;;;;;;21.13;17.52;;;;;;;11.70;53.42;99637.28;4897653;28;98137;-58
2021/01/01 04:55:04;;;;;;;20.02;17.40;;;;;;;11.73;53.45;99635.91;4883343;28;128307;-58
2021/01/01 04:57:30;;;;;;;20.63;17.45;;;;;;;11.71;53.87;99641.59;4901475;28;99094;-58
2021/01/01 04:59:56;;;;;;;20.98;17.83;;;;;;;11.72;53.54;99645.09;4905149;28;125207;-58
2021/01/01 05:02:23;;;;;;;20.58;17.48;;;;;;;11.70;53.57;99652.69;4905447;28;105221;-58
2021/01/01 05:04:49;;;;;;;19.65;17.00;;;;;;;11.72;53.81;99650.50;4886637;28;117355;-58
2021/01/01 05:07:19;;;;;;;21.23;17.42;;;;;;;11.72;53.73;99658.59;4904733;28;98066;-58
2021/01/01 05:09:45;;;;;;;20.23;17.50;;;;;;;11.69;53.44;99659.97;4904486;28;114468;-58
2021/01/01 05:12:12;;;;;;;19.17;17.02;;;;;;;11.70;53.90;99655.38;4905042;28;97921;-58
2021/01/01 05:14:38;;;;;;;24.73;18.15;;;;;;;11.70;53.43;99661.56;4905885;28;110202;-58
2021/01/01 05:17:05;;;;;;;20.67;17.42;;;;;;;11.70;53.60;99666.97;4904780;28;98828;-58
2021/01/01 05:19:44;;;;;;;20.00;17.17;;;;;;;11.69;53.84;99667.28;4904219;28;116125;-58
2021/01/01 05:22:11;;;;;;;21.02;17.42;;;;;;;11.71;53.65;99670.47;4905270;28;117946;-58
2021/01/01 05:24:45;;;;;;;19.08;16.92;;;;;;;11.68;53.81;99671.09;4904759;28;106981;-58
2021/01/01 05:27:16;;;;;;;19.67;16.90;;;;;;;11.69;53.66;99673.47;4902552;28;98810;-58
2021/01/01 05:29:57;;;;;;;19.38;17.15;;;;;;;11.67;53.97;99683.78;4883565;28;98305;-58
2021/01/01 05:32:29;;;;;;;20.30;17.13;;;;;;;11.71;54.06;99682.09;4885752;28;98171;-59
2021/01/01 05:34:57;;;;;;;19.75;17.20;;;;;;;11.71;54.16;99683.97;4905308;28;98794;-58
2021/01/01 05:37:34;;;;;;;19.05;16.98;;;;;;;11.68;53.62;99679.19;4902434;28;98570;-58
2021/01/01 05:40:11;;;;;;;18.88;16.58;;;;;;;11.68;54.43;99668.38;4887502;28;98280;-58
2021/01/01 05:42:40;;;;;;;20.98;17.05;;;;;;;11.67;54.12;99683.78;4905358;28;97836;-58
2021/01/01 05:45:16;;;;;;;20.65;17.17;;;;;;;11.66;53.91;99684.84;4904806;28;127203;-57
2021/01/01 05:47:43;;;;;;;18.83;16.23;;;;;;;11.68;53.97;99674.59;4904991;28;98291;-58
2021/01/01 05:50:09;;;;;;;18.92;16.63;;;;;;;11.70;54.47;99679.69;4903410;28;99844;-58
2021/01/01 05:52:35;;;;;;;19.52;16.67;;;;;;;11.68;54.29;99685.38;4904775;28;98062;-58
2021/01/01 05:55:04;;;;;;;19.17;16.58;;;;;;;11.69;54.12;99678.06;4905022;28;98323;-58
2021/01/01 05:57:38;;;;;;;19.08;16.98;;;;;;;11.68;54.14;99679.19;4900106;28;99160;-58
2021/01/01 06:00:10;;;;;;;20.33;16.27;;;;;;;11.71;54.17;99681.28;4904594;28;113912;-58
2021/01/01 06:02:39;;;;;;;20.30;16.75;;;;;;;11.72;54.32;99674.78;4904772;28;98072;-58
2021/01/01 06:05:09;;;;;;;19.40;16.75;;;;;;;11.70;54.03;99685.88;4904837;28;99256;-58
2021/01/01 06:07:40;;;;;;;18.75;15.52;;;;;;;11.71;54.17;99678.56;4884892;28;98590;-57
2021/01/01 06:10:08;;;;;;;18.58;16.25;;;;;;;11.75;54.69;99685.81;4902562;28;117378;-57
2021/01/01 06:12:38;;;;;;;17.88;14.75;;;;;;;11.75;54.70;99690.38;4902204;28;97975;-57
2021/01/01 06:15:07;;;;;;;17.08;14.77;;;;;;;11.74;54.37;99697.69;4901365;28;118029;-58
2021/01/01 06:17:50;;;;;;;17.38;13.98;;;;;;;11.76;54.36;99690.09;4885486;28;116276;-58
2021/01/01 06:20:19;;;;;;;;;;;;;;;11.66;54.47;99692.16;4904967;28;98475;-59
2021/01/01 06:23:07;;;;;;;18.15;14.25;;;;;;;11.69;54.98;99699.69;4903722;28;97737;-58
2021/01/01 06:25:34;;;;;;;16.55;13.93;;;;;;;11.71;54.81;99690.19;4904742;28;98712;-58
2021/01/01 06:28:00;;;;;;;17.08;13.55;;;;;;;11.73;54.92;99695.28;4903954;28;98477;-58
2021/01/01 06:30:28;;;;;;;17.02;13.77;;;;;;;11.76;54.72;99694.72;4903372;28;117404;-58
2021/01/01 06:32:54;;;;;;;15.10;13.23;;;;;;;11.76;54.78;99700.13;4886883;28;97836;-58
2021/01/01 06:35:24;;;;;;;16.13;13.30;;;;;;;11.73;54.95;99693.38;4902979;28;121306;-58
2021/01/01 06:37:57;;;;;;;16.13;13.23;;;;;;;11.75;54.34;99696.63;4904728;28;113713;-58
2021/01/01 06:40:22;;;;;;;16.25;13.35;;;;;;;11.80;54.77;99698.44;4902524;28;128313;-58
2021/01/01 06:43:04;;;;;;;15.48;12.63;;;;;;;11.74;54.57;99695.00;4904410;28;97959;-58
2021/01/01 06:45:40;;;;;;;15.07;12.95;;;;;;;11.77;54.79;99702.50;4903535;28;99268;-58
2021/01/01 06:48:08;;;;;;;15.20;12.40;;;;;;;11.77;54.69;99707.09;4903661;28;99536;-58
2021/01/01 06:50:36;;;;;;;14.60;12.93;;;;;;;11.78;54.94;99708.72;4902035;28;97879;-58
2021/01/01 06:53:13;;;;;;;14.18;12.20;;;;;;;11.76;54.65;99706.31;4882169;28;97827;-58
2021/01/01 06:55:45;;;;;;;15.30;12.55;;;;;;;11.77;54.71;99715.22;4884739;28;98388;-58
2021/01/01 06:58:12;;;;;;;14.60;12.03;;;;;;;11.75;55.19;99712.81;4883507;28;108916;-58
2021/01/01 07:00:50;;;;;;;14.60;12.40;;;;;;;11.74;54.61;99716.59;4884291;28;99419;-58
2021/01/01 07:03:38;;;;;;;15.35;12.93;;;;;;;11.73;54.71;99717.69;4900812;28;97880;-58
2021/01/01 07:06:04;;;;;;;14.98;12.95;;;;;;;11.75;54.79;99718.22;4885644;28;98219;-58
2021/01/01 07:08:42;;;;;;;14.70;12.30;;;;;;;11.75;54.86;99718.22;4903728;28;98576;-58
2021/01/01 07:11:11;;;;;;;15.48;12.88;;;;;;;11.77;55.07;99721.41;4903757;28;98135;-58
2021/01/01 07:13:46;;;;;;;17.42;13.18;;;;;;;11.78;54.75;99725.69;4904283;28;98172;-58
2021/01/01 07:16:14;;;;;;;15.15;12.77;;;;;;;11.78;55.01;99730.31;4889159;28;112055;-58
2021/01/01 07:18:40;;;;;;;15.65;12.77;;;;;;;11.78;55.10;99733.81;4902940;28;98960;-58
2021/01/01 07:21:08;;;;;;;14.38;12.88;;;;;;;11.79;54.78;99726.53;4902565;28;127726;-58
2021/01/01 07:23:34;;;;;;;16.73;13.45;;;;;;;11.81;54.80;99737.81;4902615;28;109909;-58
2021/01/01 07:26:00;;;;;;;15.75;13.48;;;;;;;11.80;55.26;99730.84;4901934;28;125129;-58
2021/01/01 07:28:27;;;;;;;15.50;13.18;;;;;;;11.78;55.11;99735.72;4886118;28;98312;-58
2021/01/01 07:30:53;;;;;;;15.48;13.70;;;;;;;11.83;54.71;99734.81;4901437;28;128371;-58
2021/01/01 07:33:31;;;;;;;16.55;13.20;;;;;;;11.80;55.15;99741.63;4901489;28;105978;-58
2021/01/01 07:36:02;;;;;;;17.75;14.00;;;;;;;11.82;55.05;99739.44;4900095;28;112637;-58
2021/01/01 07:38:30;;;;;;;15.07;13.35;;;;;;;11.84;54.75;99741.88;4884777;28;111565;-58
2021/01/01 07:40:57;;;;;;;16.77;13.43;;;;;;;11.84;54.62;99739.97;4885255;28;116495;-58
2021/01/01 07:43:24;;;;;;;16.90;13.82;;;;;;;11.83;55.04;99745.63;4904073;28;97923;-58
2021/01/01 07:45:50;;;;;;;16.98;14.05;;;;;;;11.85;54.97;99744.28;4889707;28;98746;-58
2021/01/01 07:48:16;;;;;;;16.55;14.18;;;;;;;11.88;55.01;99748.31;4881864;28;128056;-58
2021/01/01 07:50:42;;;;;;;17.48;14.50;;;;;;;11.87;55.17;99752.91;4882343;28;127406;-58
2021/01/01 07:53:12;;;;;;;17.65;14.02;;;;;;;11.86;55.21;99761.28;4877782;28;103588;-57
2021/01/01 07:55:39;;;;;;;17.00;13.75;;;;;;;11.90;54.93;99751.50;4862894;28;114295;-58
2021/01/01 07:58:10;;;;;;;16.50;14.07;;;;;;;11.90;55.16;99756.91;4843783;28;110217;-58
2021/01/01 08:00:39;;;;;;;16.30;13.60;;;;;;;11.88;55.24;99759.91;4861205;28;97923;-58
2021/01/01 08:03:07;;;;;;;16.60;13.80;;;;;;;11.90;55.11;99757.69;4861203;28;98313;-58
2021/01/01 08:05:34;;;;;;;16.77;13.82;;;;;;;11.93;55.27;99764.41;4862179;28;118465;-58
2021/01/01 08:08:17;;;;;;;16.38;14.00;;;;;;;11.90;55.22;99759.59;4847513;28;99832;-58
2021/01/01 08:10:45;;;;;;;15.85;13.30;;;;;;;11.93;55.18;99767.91;4863090;28;98067;-58
2021/01/01 08:13:30;;;;;;;16.65;14.25;;;;;;;11.92;54.97;99768.22;4862840;28;97851;-58
2021/01/01 08:15:58;;;;;;;19.45;13.93;;;;;;;11.96;55.53;99769.25;4875454;28;102435;-58
2021/01/01 08:18:26;;;;;;;15.98;13.75;;;;;;;11.99;55.29;99771.38;4871612;28;99389;-58
2021/01/01 08:21:03;;;;;;;17.50;13.98;;;;;;;12.01;55.45;99771.84;4879766;28;120016;-58
2021/01/01 08:23:57;;;;;;;16.95;13.43;;;;;;;12.06;55.02;99768.28;4858690;28;98185;-58
2021/01/01 08:26:23;;;;;;;17.08;13.65;;;;;;;12.14;55.23;99765.69;4874142;28;116411;-58
2021/01/01 08:28:51;;;;;;;15.88;13.35;;;;;;;12.22;55.04;99766.94;4861975;28;128372;-58
2021/01/01 08:31:20;;;;;;;16.48;13.93;;;;;;;12.33;54.94;99765.66;4842245;28;114810;-58
2021/01/01 08:33:46;;;;;;;15.90;13.98;;;;;;;12.34;54.97;99775.41;4862050;28;98091;-58
2021/01/01 08:36:12;;;;;;;17.58;14.07;;;;;;;12.39;55.47;99772.63;4852539;28;127632;-58
2021/01/01 08:38:42;;;;;;;16.45;13.63;;;;;;;12.39;55.51;99774.53;4868493;28;116738;-58
2021/01/01 08:41:16;;;;;;;16.60;13.77;;;;;;;12.41;55.94;99775.81;4863033;28;98049;-58
2021/01/01 08:43:42;;;;;;;15.27;12.77;;;;;;;12.49;55.89;99780.53;4874218;28;97867;-58
2021/01/01 08:46:17;;;;;;;16.55;13.30;;;;;;;12.47;56.75;99784.66;4869490;28;125805;-58
2021/01/01 08:48:43;;;;;;;16.05;13.65;;;;;;;12.54;56.57;99790.47;4878959;28;115716;-58
2021/01/01 08:51:09;;;;;;;16.30;13.52;;;;;;;12.60;56.62;99789.28;4879989;28;105078;-58
2021/01/01 08:53:41;;;;;;;17.42;14.13;;;;;;;12.57;56.63;99778.25;4889289;28;97816;-58
2021/01/01 08:56:08;;;;;;;16.52;13.85;;;;;;;12.60;56.85;99786.56;4898811;28;98147;-58
2021/01/01 08:58:34;;;;;;;16.00;13.95;;;;;;;12.63;57.22;99787.91;4899366;28;99348;-58
2021/01/01 09:01:17;;;;;;;17.17;13.98;;;;;;;12.65;57.10;99789.19;4898742;28;110009;-58
2021/01/01 09:03:46;;;;;;;16.83;14.13;;;;;;;12.72;57.10;99794.22;4894054;28;97802;-58
2021/01/01 09:06:19;;;;;;;17.02;14.30;;;;;;;12.76;57.49;99796.03;4880111;28;98382;-58
2021/01/01 09:08:45;;;;;;;16.90;13.93;;;;;;;12.78;57.45;99799.25;4879857;28;98959;-58
2021/01/01 09:11:23;;;;;;;18.45;14.63;;;;;;;12.80;57.35;99800.84;4879093;28;113998;-58
2021/01/01 09:14:03;;;;;;;17.67;14.10;;;;;;;12.84;57.48;99793.72;4879886;28;117166;-58
2021/01/01 09:16:29;;;;;;;16.33;14.15;;;;;;;12.91;57.31;99794.94;4890622;28;98902;-58
2021/01/01 09:18:55;;;;;;;17.08;13.93;;;;;;;12.99;57.29;99793.47;4880689;28;115336;-59
2021/01/01 09:21:21;;;;;;;19.00;14.20;;;;;;;13.03;57.26;99797.97;4899139;28;98221;-58
2021/01/01 09:23:54;;;;;;;16.20;14.10;;;;;;;13.02;57.26;99793.66;4880156;28;116569;-58
2021/01/01 09:26:26;;;;;;;17.77;13.75;;;;;;;13.08;57.30;99793.56;4898626;28;99314;-58
2021/01/01 09:29:04;;;;;;;16.42;13.60;;;;;;;13.10;57.45;99796.78;4898873;28;98258;-58
2021/01/01 09:31:30;;;;;;;16.85;13.55;;;;;;;13.14;57.60;99797.78;4892691;28;99228;-58
2021/01/01 09:34:04;;;;;;;17.67;13.65;;;;;;;13.18;57.50;99805.00;4898785;28;108538;-58
2021/01/01 09:36:38;;;;;;;17.88;14.30;;;;;;;13.18;57.60;99801.50;4898423;28;98689;-58
2021/01/01 09:39:07;;;;;;;17.33;13.57;;;;;;;13.23;57.50;99796.00;4899258;28;101597;-58
2021/01/01 09:41:37;;;;;;;16.08;13.20;;;;;;;13.29;57.47;99802.13;4898376;28;97844;-58
2021/01/01 09:44:03;;;;;;;16.90;14.32;;;;;;;13.30;57.75;99809.94;4901562;28;106051;-58
2021/01/01 09:46:29;;;;;;;18.60;14.50;;;;;;;13.31;57.65;99808.81;4883969;28;98427;-58
2021/01/01 09:48:55;;;;;;;17.23;13.82;;;;;;;13.31;57.67;99810.75;4900767;28;127121;-58
2021/01/01 09:51:21;;;;;;;16.42;14.00;;;;;;;13.30;57.95;99819.97;4900568;28;127408;-58
2021/01/01 09:53:47;;;;;;;18.45;13.93;;;;;;;13.29;57.89;99819.16;4900375;28;98001;-58
2021/01/01 09:56:14;;;;;;;15.95;13.68;;;;;;;13.32;58.22;99818.53;4893852;28;128119;-58
2021/01/01 09:58:40;;;;;;;15.60;12.95;;;;;;;13.36;58.16;99819.56;4882348;28;128385;-59
2021/01/01 10:01:06;;;;;;;16.50;13.65;;;;;;;13.41;57.85;99818.66;4881606;28;127664;-58
2021/01/01 10:03:32;;;;;;;16.48;13.00;;;;;;;13.46;57.91;99819.34;4883410;28;98126;-58
2021/01/01 10:05:58;;;;;;;14.23;12.57;;;;;;;13.51;57.64;99819.25;4881999;28;128353;-59
2021/01/01 10:08:24;;;;;;;17.23;13.65;;;;;;;13.58;57.44;99816.13;4882210;28;128240;-58
2021/01/01 10:10:52;;;;;;;16.17;13.27;;;;;;;13.63;57.58;99816.03;4883054;28;126224;-58
2021/01/01 10:13:18;;;;;;;18.15;13.55;;;;;;;13.67;57.71;99829.75;4883160;28;97812;-58
2021/01/01 10:15:44;;;;;;;15.70;13.35;;;;;;;13.71;57.45;99828.03;4898103;28;129094;-58
2021/01/01 10:18:10;;;;;;;15.73;12.88;;;;;;;13.73;57.58;99832.06;4898536;28;126945;-58
2021/01/01 10:20:36;;;;;;;16.15;12.88;;;;;;;13.84;57.54;99827.25;4898983;28;126353;-58
2021/01/01 10:23:02;;;;;;;16.88;13.02;;;;;;;13.95;57.31;99827.81;4899844;28;99116;-59
2021/01/01 10:25:28;;;;;;;15.75;12.95;;;;;;;14.03;57.61;99828.97;4885970;28;127981;-59
2021/01/01 10:27:54;;;;;;;14.68;12.43;;;;;;;14.00;57.56;99825.78;4891915;28;127577;-58
2021/01/01 10:30:21;;;;;;;16.13;12.82;;;;;;;14.05;57.79;99830.28;4882396;28;98438;-59
2021/01/01 10:32:47;;;;;;;16.05;12.82;;;;;;;14.10;58.06;99821.25;4882096;28;102651;-58
2021/01/01 10:35:13;;;;;;;17.42;13.02;;;;;;;14.09;57.80;99835.91;4880570;28;117101;-58
2021/01/01 10:37:39;;;;;;;16.58;13.30;;;;;;;14.19;57.79;99824.84;4881538;28;128138;-58
2021/01/01 10:40:06;;;;;;;15.40;13.30;;;;;;;14.36;57.25;99821.47;4881225;28;127980;-59
2021/01/01 10:42:32;;;;;;;14.73;13.13;;;;;;;14.36;57.47;99822.25;4884298;28;98213;-58
2021/01/01 10:44:58;;;;;;;14.95;12.27;;;;;;;14.28;58.06;99827.63;4898855;28;126881;-59
2021/01/01 10:47:24;;;;;;;15.90;12.45;;;;;;;14.22;58.26;99813.38;4883132;28;98476;-58
2021/01/01 10:49:50;;;;;;;14.77;12.65;;;;;;;14.18;58.53;99823.22;4902162;28;98597;-58
2021/01/01 10:52:16;;;;;;;14.32;12.10;;;;;;;14.12;58.73;99819.03;4899968;28;118068;-58
2021/01/01 10:54:42;;;;;;;13.13;11.60;;;;;;;14.04;59.01;99828.69;4899567;28;128152;-58
2021/01/01 10:57:08;;;;;;;14.80;12.27;;;;;;;13.99;59.31;99821.50;4900484;28;127622;-58
2021/01/01 10:59:34;;;;;;;14.55;12.40;;;;;;;13.95;59.24;99823.22;4900331;28;126346;-58
2021/01/01 11:02:01;;;;;;;14.25;11.57;;;;;;;13.93;59.32;99820.00;4901113;28;97660;-58
2021/01/01 11:04:27;;;;;;;13.82;11.95;;;;;;;13.91;59.29;99816.78;4901340;28;98329;-59
2021/01/01 11:06:53;;;;;;;12.82;10.77;;;;;;;13.91;59.19;99816.78;4901021;28;98469;-58
2021/01/01 11:09:19;;;;;;;12.23;10.93;;;;;;;13.92;59.04;99812.19;4901661;28;98050;-58
2021/01/01 11:11:47;;;;;;;13.30;10.65;;;;;;;13.93;59.26;99811.06;4900875;28;97961;-58
2021/01/01 11:14:20;;;;;;;12.30;10.43;;;;;;;13.87;59.25;99818.50;4888306;28;99050;-58
2021/01/01 12:25:35;;;;;;;11.68;9.45;;;;;;;14.27;58.87;99826.03;4878724;28;113297;-58